Time;durP1;ratioP1;P1;durP2;ratioP2;P2;SDS_P1;SDS_P2;PMS_P1;PMS_P2;Temp;Humidity;BMP_temperature;BMP_pressure;BME280_temperature;BME280_humidity;BME280_pressure;Samples;Min_cycle;Max_cycle;Signal;HPM_P1;HPM_P2
2021/03/16 00:02:26;;;;;;;17.75;8.32;;;4.70;99.90;;;;;;10311865;28;20435;-75
2021/03/16 00:07:28;;;;;;;18.38;7.78;;;4.50;99.90;;;;;;10306955;28;20085;-75
2021/03/16 00:12:30;;;;;;;23.33;8.40;;;4.20;99.90;;;;;;10312555;28;20154;-75
2021/03/16 00:17:31;;;;;;;15.98;8.48;;;4.30;99.90;;;;;;10289106;28;20083;-76
2021/03/16 00:22:33;;;;;;;17.75;7.57;;;4.40;99.90;;;;;;10315360;28;20054;-75
2021/03/16 00:27:47;;;;;;;16.35;6.05;;;4.40;99.90;;;;;;10310564;28;20878;-75
2021/03/16 00:32:48;;;;;;;12.65;4.45;;;4.30;99.90;;;;;;10290549;28;20141;-75
2021/03/16 00:37:50;;;;;;;17.27;4.13;;;4.20;99.90;;;;;;10318951;28;20070;-75
2021/03/16 00:42:51;;;;;;;11.70;4.20;;;4.00;99.90;;;;;;10294153;28;20061;-75
2021/03/16 00:47:53;;;;;;;13.75;3.75;;;4.00;99.90;;;;;;10293364;28;20050;-75
2021/03/16 00:52:54;;;;;;;16.65;4.45;;;4.10;99.90;;;;;;10309438;28;20062;-75
2021/03/16 00:58:11;;;;;;;13.05;4.40;;;4.30;99.90;;;;;;10306635;28;20093;-74
2021/03/16 01:03:12;;;;;;;16.00;5.32;;;4.40;99.90;;;;;;10306878;28;20074;-74
2021/03/16 01:08:18;;;;;;;13.52;4.22;;;4.60;99.90;;;;;;10304832;28;20225;-74
2021/03/16 01:13:20;;;;;;;15.23;4.53;;;4.50;99.90;;;;;;10302547;28;20051;-75
2021/03/16 01:18:21;;;;;;;12.38;4.10;;;4.70;99.90;;;;;;10314023;28;20130;-75
2021/03/16 01:23:22;;;;;;;12.18;3.88;;;4.50;99.90;;;;;;10285489;28;20055;-75
2021/03/16 01:28:36;;;;;;;16.02;3.95;;;4.30;99.90;;;;;;10305446;28;20054;-76
2021/03/16 01:33:38;;;;;;;14.02;3.50;;;4.40;99.90;;;;;;10300240;28;20133;-75
2021/03/16 01:38:39;;;;;;;13.13;3.58;;;4.20;99.90;;;;;;10300737;28;20533;-75
2021/03/16 01:43:41;;;;;;;13.25;3.63;;;4.00;99.90;;;;;;10307145;28;20478;-76
2021/03/16 01:48:43;;;;;;;18.15;4.55;;;3.90;99.90;;;;;;10315714;28;20452;-75
2021/03/16 01:53:44;;;;;;;14.20;4.65;;;3.80;99.90;;;;;;10291800;28;20136;-76
2021/03/16 01:59:00;;;;;;;14.57;5.53;;;3.70;99.90;;;;;;10299486;28;20057;-75
2021/03/16 02:04:02;;;;;;;19.13;6.75;;;3.70;99.90;;;;;;10322117;28;20051;-76
2021/03/16 02:09:13;;;;;;;25.33;6.78;;;3.70;99.90;;;;;;10322782;28;20063;-76
2021/03/16 02:14:20;;;;;;;19.10;6.50;;;3.60;99.90;;;;;;10298443;28;20130;-75
2021/03/16 02:19:56;;;;;;;20.65;6.65;;;3.50;99.90;;;;;;10300660;28;20094;-75
2021/03/16 02:25:26;;;;;;;15.98;5.78;;;3.60;99.90;;;;;;10310288;28;20485;-76
2021/03/16 02:30:29;;;;;;;20.60;7.05;;;3.60;99.90;;;;;;10290974;28;20567;-75
2021/03/16 02:35:32;;;;;;;17.60;6.30;;;3.50;99.90;;;;;;10315015;28;20136;-75
2021/03/16 02:40:34;;;;;;;16.98;6.00;;;3.50;99.90;;;;;;10300432;28;20129;-75
2021/03/16 02:45:36;;;;;;;17.13;6.15;;;3.50;99.90;;;;;;10303460;28;20046;-76
2021/03/16 02:50:39;;;;;;;13.88;6.20;;;3.50;99.90;;;;;;10321069;28;20082;-75
2021/03/16 02:55:42;;;;;;;19.73;5.82;;;3.50;99.90;;;;;;10299053;28;20054;-76
2021/03/16 03:00:44;;;;;;;19.85;6.38;;;3.50;99.90;;;;;;10306366;28;20130;-75
2021/03/16 03:05:47;;;;;;;15.95;4.70;;;3.50;99.90;;;;;;10291827;28;20047;-75
2021/03/16 03:10:48;;;;;;;16.15;4.75;;;3.50;99.90;;;;;;10314748;28;20073;-75
2021/03/16 03:15:52;;;;;;;16.42;5.90;;;3.50;99.90;;;;;;10310095;28;20077;-75
2021/03/16 03:20:55;;;;;;;17.35;6.35;;;3.60;99.90;;;;;;10311831;28;20065;-75
2021/03/16 03:26:03;;;;;;;18.38;7.88;;;3.80;99.90;;;;;;10337328;28;20054;-75
2021/03/16 03:31:06;;;;;;;21.30;9.18;;;3.80;99.90;;;;;;10337580;28;20487;-75
2021/03/16 03:36:08;;;;;;;18.92;9.45;;;3.80;99.90;;;;;;10312274;28;20046;-75
2021/03/16 03:41:10;;;;;;;18.17;7.88;;;3.80;99.90;;;;;;10335205;28;20046;-75
2021/03/16 03:46:15;;;;;;;24.33;9.20;;;4.00;99.90;;;;;;10313699;28;20078;-75
2021/03/16 03:51:20;;;;;;;23.75;9.50;;;4.00;99.90;;;;;;10334253;28;20162;-75
2021/03/16 03:56:23;;;;;;;23.23;9.60;;;4.00;99.90;;;;;;10307870;28;20134;-75
2021/03/16 04:01:27;;;;;;;26.50;9.77;;;4.00;99.90;;;;;;10321815;28;20058;-75
2021/03/16 04:06:29;;;;;;;18.90;8.82;;;4.20;99.90;;;;;;10330706;28;20109;-75
2021/03/16 04:11:31;;;;;;;25.25;9.25;;;4.20;99.90;;;;;;10292562;28;20055;-75
2021/03/16 04:16:33;;;;;;;19.83;9.35;;;4.30;99.90;;;;;;10302236;28;20135;-75
2021/03/16 04:21:35;;;;;;;29.40;10.02;;;4.30;99.90;;;;;;10318298;28;20141;-75
2021/03/16 04:26:37;;;;;;;20.67;8.63;;;4.40;99.90;;;;;;10299260;28;20144;-75
2021/03/16 04:31:38;;;;;;;21.77;8.43;;;4.40;99.90;;;;;;10316233;28;20145;-75
2021/03/16 04:36:40;;;;;;;26.33;7.97;;;4.50;99.90;;;;;;10300054;28;20534;-75
2021/03/16 04:41:41;;;;;;;20.48;6.55;;;4.30;99.90;;;;;;10316769;28;20105;-75
2021/03/16 04:46:42;;;;;;;22.15;6.28;;;4.10;99.90;;;;;;10300444;28;20053;-75
2021/03/16 04:51:44;;;;;;;18.52;5.85;;;4.00;99.90;;;;;;10294104;28;20054;-75
2021/03/16 04:56:46;;;;;;;22.60;6.30;;;3.80;99.90;;;;;;10289622;28;20137;-75
2021/03/16 05:01:47;;;;;;;24.38;6.82;;;3.70;99.90;;;;;;10304416;28;20137;-75
2021/03/16 05:06:50;;;;;;;20.88;7.65;;;3.80;99.90;;;;;;10308932;28;20061;-75
2021/03/16 05:11:51;;;;;;;20.88;8.43;;;3.90;99.90;;;;;;10303635;28;20453;-74
2021/03/16 05:16:52;;;;;;;22.02;8.55;;;3.90;99.90;;;;;;10313922;28;20065;-76
2021/03/16 05:21:54;;;;;;;24.55;8.80;;;3.90;99.90;;;;;;10326320;28;20065;-75
2021/03/16 05:26:57;;;;;;;24.45;9.00;;;3.90;99.90;;;;;;10289390;28;20137;-75
2021/03/16 05:31:58;;;;;;;32.28;14.52;;;3.90;99.90;;;;;;10317569;28;20070;-74
2021/03/16 05:37:00;;;;;;;33.03;15.35;;;3.80;99.90;;;;;;10293350;28;20085;-75
2021/03/16 05:42:02;;;;;;;25.35;9.50;;;3.80;99.90;;;;;;10301817;28;20046;-75
2021/03/16 05:47:05;;;;;;;25.67;9.07;;;4.00;99.90;;;;;;10305480;28;20046;-75
2021/03/16 05:52:09;;;;;;;26.30;9.88;;;4.30;99.90;;;;;;10317908;28;20054;-75
2021/03/16 05:57:11;;;;;;;26.33;9.60;;;4.50;99.90;;;;;;10304687;28;20121;-75
2021/03/16 06:02:12;;;;;;;23.95;9.40;;;4.60;99.90;;;;;;10312937;28;20455;-75
2021/03/16 06:07:15;;;;;;;29.00;10.05;;;4.70;99.90;;;;;;10308684;28;20054;-75
2021/03/16 06:12:26;;;;;;;32.10;11.23;;;4.70;99.90;;;;;;10302710;28;20089;-75
2021/03/16 06:17:28;;;;;;;26.13;10.40;;;4.70;99.90;;;;;;10308388;28;20055;-75
2021/03/16 06:22:30;;;;;;;20.95;10.20;;;4.70;99.90;;;;;;10295685;28;20137;-75
2021/03/16 06:27:31;;;;;;;21.25;10.40;;;4.80;99.90;;;;;;10312003;28;20055;-75
2021/03/16 06:32:35;;;;;;;25.02;11.02;;;4.80;99.90;;;;;;10298125;28;20057;-75
2021/03/16 06:37:37;;;;;;;24.65;9.77;;;5.00;99.90;;;;;;10310233;28;20050;-75
2021/03/16 06:42:38;;;;;;;22.35;9.00;;;4.90;99.90;;;;;;10304322;28;20059;-75
2021/03/16 06:47:43;;;;;;;20.38;9.82;;;5.00;99.90;;;;;;10313888;28;20085;-75
2021/03/16 06:52:50;;;;;;;30.20;10.80;;;5.10;99.90;;;;;;10297635;28;20232;-75
2021/03/16 06:57:51;;;;;;;21.45;8.80;;;5.20;99.90;;;;;;10309489;28;20070;-75
2021/03/16 07:03:16;;;;;;;19.95;7.68;;;5.20;99.90;;;;;;10289353;28;20781;-75
2021/03/16 07:08:19;;;;;;;22.23;7.50;;;5.20;99.90;;;;;;10301232;28;20061;-75
2021/03/16 07:13:22;;;;;;;17.88;5.95;;;5.30;99.90;;;;;;10311585;28;20047;-76
2021/03/16 07:18:24;;;;;;;18.35;5.05;;;5.40;99.90;;;;;;10284121;28;20133;-75
2021/03/16 07:23:26;;;;;;;23.35;5.10;;;5.50;99.90;;;;;;10313695;28;20050;-75
2021/03/16 07:28:30;;;;;;;19.15;5.75;;;5.70;99.90;;;;;;10294646;28;20471;-74
2021/03/16 07:33:33;;;;;;;17.00;6.18;;;5.60;99.90;;;;;;10306451;28;20054;-75
2021/03/16 07:38:37;;;;;;;20.00;6.03;;;5.70;99.90;;;;;;10299268;28;20136;-75
2021/03/16 07:43:41;;;;;;;18.33;5.85;;;5.80;99.90;;;;;;10299900;28;20086;-76
2021/03/16 07:48:44;;;;;;;17.25;6.75;;;6.00;99.90;;;;;;10291824;28;20082;-75
2021/03/16 07:54:01;;;;;;;15.60;5.95;;;6.50;99.90;;;;;;10313237;28;20078;-76
2021/03/16 07:59:04;;;;;;;21.02;5.55;;;6.70;99.90;;;;;;10290171;28;20459;-75
2021/03/16 08:04:10;;;;;;;18.25;5.32;;;6.90;99.90;;;;;;10315038;28;20073;-75
2021/03/16 08:09:22;;;;;;;15.15;5.15;;;6.90;99.90;;;;;;10321322;28;20219;-75
2021/03/16 08:14:30;;;;;;;19.27;6.63;;;6.90;99.90;;;;;;10324629;28;20088;-76
2021/03/16 08:19:40;;;;;;;23.08;6.60;;;6.90;99.90;;;;;;10318980;28;20046;-76
2021/03/16 08:24:42;;;;;;;19.02;6.60;;;7.30;99.90;;;;;;10295276;28;20053;-75
2021/03/16 08:29:48;;;;;;;16.75;6.60;;;7.90;99.90;;;;;;10327618;28;20050;-75
2021/03/16 08:34:51;;;;;;;18.42;6.82;;;8.10;99.90;;;;;;10321521;28;20054;-76
2021/03/16 08:39:55;;;;;;;15.48;6.38;;;7.50;99.90;;;;;;10315614;28;20058;-75
2021/03/16 08:44:57;;;;;;;18.30;6.93;;;7.30;99.90;;;;;;10316708;28;20150;-75
2021/03/16 08:49:58;;;;;;;16.05;6.57;;;7.10;99.90;;;;;;10299982;28;20064;-76
2021/03/16 08:55:02;;;;;;;17.65;6.13;;;6.90;99.90;;;;;;10316573;28;20050;-75
2021/03/16 09:00:04;;;;;;;13.90;5.75;;;6.70;99.90;;;;;;10299434;28;20050;-75
2021/03/16 09:05:18;;;;;;;12.27;4.60;;;7.00;99.90;;;;;;10323710;28;20458;-75
2021/03/16 09:10:20;;;;;;;15.65;4.40;;;7.00;99.90;;;;;;10289461;28;20137;-75
2021/03/16 09:15:27;;;;;;;11.18;5.30;;;7.00;99.90;;;;;;10316165;28;20089;-71
2021/03/16 09:20:39;;;;;;;13.50;5.63;;;7.00;99.90;;;;;;10285780;28;20499;-66
2021/03/16 09:25:42;;;;;;;17.38;5.50;;;7.00;99.90;;;;;;10285806;28;20506;-66
2021/03/16 09:30:49;;;;;;;12.95;5.28;;;7.60;99.90;;;;;;10323425;28;20150;-65
2021/03/16 09:35:55;;;;;;;11.98;5.18;;;7.90;99.90;;;;;;10295050;28;20047;-66
2021/03/16 09:40:57;;;;;;;12.25;4.85;;;7.80;99.90;;;;;;10318945;28;20054;-66
2021/03/16 09:46:03;;;;;;;14.32;5.32;;;7.70;99.90;;;;;;10322090;28;20050;-66
2021/03/16 09:51:17;;;;;;;12.20;5.15;;;7.80;99.90;;;;;;10322195;28;20061;-66
2021/03/16 09:56:29;;;;;;;10.18;4.63;;;8.40;99.90;;;;;;10309514;28;20070;-66
2021/03/16 10:01:30;;;;;;;11.60;3.97;;;8.80;99.90;;;;;;10319161;28;20046;-66
2021/03/16 10:06:38;;;;;;;11.45;4.30;;;9.00;99.90;;;;;;10304931;28;20057;-66
2021/03/16 10:11:40;;;;;;;10.85;3.30;;;8.70;99.90;;;;;;10318540;28;20086;-66
2021/03/16 10:16:42;;;;;;;7.95;2.60;;;8.70;99.90;;;;;;10319496;28;20121;-66
2021/03/16 10:21:43;;;;;;;8.57;2.83;;;8.60;99.90;;;;;;10318248;28;20053;-66
2021/03/16 10:26:54;;;;;;;6.47;2.20;;;8.60;99.90;;;;;;10314905;28;20133;-66
2021/03/16 10:31:55;;;;;;;10.63;3.22;;;8.70;99.90;;;;;;10295141;28;20082;-66
2021/03/16 10:36:57;;;;;;;9.75;3.03;;;9.30;99.90;;;;;;10304936;28;20076;-67
2021/03/16 10:41:58;;;;;;;10.40;3.15;;;10.00;99.90;;;;;;10285518;28;20050;-66
2021/03/16 10:46:59;;;;;;;11.82;3.15;;;10.10;99.10;;;;;;10300882;28;20129;-66
2021/03/16 10:52:02;;;;;;;11.27;2.95;;;9.70;98.90;;;;;;10306715;28;20054;-66
2021/03/16 10:57:04;;;;;;;13.32;3.28;;;9.70;98.80;;;;;;10322419;28;20050;-66
2021/03/16 11:02:05;;;;;;;11.30;2.85;;;9.80;99.60;;;;;;10321994;28;20106;-66
2021/03/16 11:07:08;;;;;;;11.35;3.22;;;9.90;96.90;;;;;;10322833;28;20043;-66
2021/03/16 11:12:09;;;;;;;12.30;3.65;;;9.90;95.70;;;;;;10322310;28;20047;-66
2021/03/16 11:17:11;;;;;;;10.13;3.40;;;9.80;93.20;;;;;;10322785;28;20380;-66
2021/03/16 11:22:14;;;;;;;10.63;3.28;;;9.80;94.10;;;;;;10322552;28;20054;-66
2021/03/16 11:27:15;;;;;;;9.30;3.10;;;9.90;91.30;;;;;;10324958;28;20479;-66
2021/03/16 11:32:17;;;;;;;9.38;3.42;;;10.10;91.50;;;;;;10330652;28;20053;-66
2021/03/16 11:37:18;;;;;;;10.45;3.67;;;10.10;90.00;;;;;;10330510;28;20077;-66
2021/03/16 11:42:20;;;;;;;11.70;3.90;;;9.90;90.00;;;;;;10330888;28;20387;-66
2021/03/16 11:47:22;;;;;;;8.30;3.05;;;9.40;90.30;;;;;;10330360;28;20608;-66
2021/03/16 11:52:24;;;;;;;10.68;3.70;;;9.20;91.40;;;;;;10329829;28;20065;-66
2021/03/16 11:57:25;;;;;;;12.50;4.03;;;9.10;91.80;;;;;;10329154;28;20501;-66
2021/03/16 12:02:27;;;;;;;13.77;3.50;;;8.70;93.30;;;;;;10328312;28;20073;-66
2021/03/16 12:07:28;;;;;;;9.10;3.42;;;8.60;95.50;;;;;;10328756;28;20046;-66
2021/03/16 12:12:30;;;;;;;6.63;2.78;;;8.40;97.60;;;;;;10328872;28;20133;-66
2021/03/16 12:17:31;;;;;;;6.03;2.75;;;8.60;99.30;;;;;;10328609;28;20094;-66
2021/03/16 12:22:33;;;;;;;9.20;2.92;;;8.70;99.80;;;;;;10328484;28;20050;-66
2021/03/16 12:27:35;;;;;;;8.20;2.78;;;9.20;99.70;;;;;;10328719;28;20077;-66
2021/03/16 12:32:38;;;;;;;16.40;8.38;;;9.20;97.30;;;;;;10327672;28;20086;-66
2021/03/16 12:37:41;;;;;;;9.77;3.63;;;9.20;97.20;;;;;;10326899;28;20060;-66
2021/03/16 12:42:43;;;;;;;6.45;2.53;;;9.40;96.10;;;;;;10327741;28;20528;-66
2021/03/16 12:47:44;;;;;;;7.57;2.78;;;9.50;95.40;;;;;;10328054;28;20046;-66
2021/03/16 12:52:46;;;;;;;9.57;4.55;;;9.80;95.30;;;;;;10327953;28;20832;-66
2021/03/16 12:57:47;;;;;;;8.48;3.00;;;9.70;94.70;;;;;;10328103;28;20050;-66
2021/03/16 13:02:49;;;;;;;7.80;3.03;;;9.50;95.70;;;;;;10326671;28;20050;-66
2021/03/16 13:07:50;;;;;;;8.70;3.20;;;9.80;95.30;;;;;;10327536;28;20331;-66
2021/03/16 13:12:52;;;;;;;9.20;3.03;;;9.80;94.70;;;;;;10326766;28;20137;-66
2021/03/16 13:17:53;;;;;;;7.95;2.80;;;10.20;95.20;;;;;;10326515;28;20392;-66
2021/03/16 13:22:55;;;;;;;9.98;4.68;;;10.40;93.30;;;;;;10326737;28;20557;-66
2021/03/16 13:28:01;;;;;;;8.93;2.70;;;10.30;90.80;;;;;;10325466;28;20046;-66
2021/03/16 13:33:03;;;;;;;10.00;3.67;;;10.00;92.30;;;;;;10326260;28;20491;-66
2021/03/16 13:38:10;;;;;;;10.43;2.50;;;9.70;94.10;;;;;;10325794;28;20194;-66
2021/03/16 13:43:11;;;;;;;12.68;3.72;;;9.70;94.10;;;;;;10326363;28;20081;-66
2021/03/16 13:48:14;;;;;;;9.60;3.15;;;9.50;94.60;;;;;;10325067;28;20050;-66
2021/03/16 13:53:16;;;;;;;10.65;3.40;;;9.30;96.00;;;;;;10339785;28;20050;-66
2021/03/16 13:58:17;;;;;;;7.90;3.15;;;9.30;99.40;;;;;;10325563;28;20413;-66
2021/03/16 14:03:19;;;;;;;10.10;3.13;;;9.30;99.90;;;;;;10324776;28;20407;-66
2021/03/16 14:08:35;;;;;;;8.65;3.58;;;9.20;99.90;;;;;;10325736;28;20050;-66
2021/03/16 14:13:37;;;;;;;10.30;3.67;;;9.10;99.90;;;;;;10325117;28;20895;-66
2021/03/16 14:18:45;;;;;;;9.27;3.25;;;9.10;99.90;;;;;;10324636;28;20483;-66
2021/03/16 14:23:47;;;;;;;9.82;3.38;;;9.00;99.90;;;;;;10325117;28;20062;-66
2021/03/16 14:28:49;;;;;;;9.25;4.18;;;8.50;99.90;;;;;;10323842;28;20061;-66
2021/03/16 14:33:51;;;;;;;10.65;3.83;;;8.10;99.90;;;;;;10324267;28;20105;-66
2021/03/16 14:39:06;;;;;;;11.60;3.80;;;7.80;99.90;;;;;;10324282;28;20525;-66
2021/03/16 14:44:07;;;;;;;7.20;3.55;;;7.80;99.90;;;;;;10323404;28;20074;-66
2021/03/16 14:49:09;;;;;;;7.95;3.83;;;7.80;99.90;;;;;;10323709;28;20438;-66
2021/03/16 14:54:10;;;;;;;9.10;4.30;;;7.90;99.90;;;;;;10323597;28;20053;-66
2021/03/16 14:59:12;;;;;;;9.15;4.97;;;8.10;99.90;;;;;;10322696;28;20050;-66
2021/03/16 15:04:14;;;;;;;6.47;3.40;;;8.00;99.90;;;;;;10323091;28;20129;-65
2021/03/16 15:09:30;;;;;;;6.32;2.92;;;7.90;99.90;;;;;;10323334;28;20056;-66
2021/03/16 15:14:32;;;;;;;6.60;2.95;;;7.90;99.90;;;;;;10322668;28;20134;-66
2021/03/16 15:19:33;;;;;;;7.50;3.03;;;7.80;99.90;;;;;;10323135;28;20448;-66
2021/03/16 15:24:36;;;;;;;6.80;3.05;;;7.90;99.90;;;;;;10323484;28;20109;-66
2021/03/16 15:29:37;;;;;;;6.50;3.00;;;8.10;99.90;;;;;;10322681;28;20078;-66
2021/03/16 15:34:39;;;;;;;8.25;3.78;;;8.30;99.90;;;;;;10323216;28;20081;-66
2021/03/16 15:39:41;;;;;;;11.60;7.38;;;8.40;99.90;;;;;;10323043;28;20046;-66
2021/03/16 15:44:43;;;;;;;9.15;4.10;;;8.40;99.90;;;;;;10322029;28;20046;-66
2021/03/16 15:49:44;;;;;;;7.40;3.95;;;8.10;99.90;;;;;;10322494;28;20053;-66
2021/03/16 15:54:46;;;;;;;6.22;4.15;;;7.50;99.90;;;;;;10322520;28;20418;-66
2021/03/16 15:59:48;;;;;;;8.95;4.50;;;7.20;99.90;;;;;;10322104;28;20494;-66
2021/03/16 16:04:49;;;;;;;7.35;4.15;;;7.00;99.90;;;;;;10322694;28;20130;-66
2021/03/16 16:09:51;;;;;;;9.18;3.90;;;7.00;99.90;;;;;;10322656;28;20052;-66
2021/03/16 16:14:52;;;;;;;9.15;4.00;;;6.90;99.90;;;;;;10325351;28;20488;-66
2021/03/16 16:19:56;;;;;;;10.35;3.88;;;7.00;99.90;;;;;;10328899;28;20096;-66
2021/03/16 16:25:15;;;;;;;8.25;3.70;;;6.90;99.90;;;;;;10325871;28;20069;-65
2021/03/16 16:30:17;;;;;;;7.70;3.90;;;6.70;99.90;;;;;;10328881;28;20146;-66
2021/03/16 16:35:19;;;;;;;7.55;3.92;;;6.80;99.90;;;;;;10329462;28;20054;-66
2021/03/16 16:40:21;;;;;;;8.68;3.67;;;6.60;99.90;;;;;;10328412;28;20133;-66
2021/03/16 16:45:23;;;;;;;8.13;3.83;;;6.60;99.90;;;;;;10349903;28;20054;-66
2021/03/16 16:50:24;;;;;;;7.78;3.28;;;6.50;99.90;;;;;;10324332;28;20137;-66
2021/03/16 16:55:25;;;;;;;7.80;4.00;;;6.60;99.90;;;;;;10324092;28;20058;-66
2021/03/16 17:00:27;;;;;;;9.88;4.10;;;6.60;99.90;;;;;;10326752;28;20522;-65
2021/03/16 17:05:29;;;;;;;9.45;4.07;;;6.50;99.90;;;;;;10326522;28;20077;-66
2021/03/16 17:10:30;;;;;;;8.35;4.28;;;6.50;99.90;;;;;;10326565;28;20097;-66
2021/03/16 17:15:31;;;;;;;10.38;4.78;;;6.50;99.90;;;;;;10324848;28;20045;-66
2021/03/16 17:20:33;;;;;;;8.55;4.50;;;6.50;99.90;;;;;;10326015;28;20137;-66
2021/03/16 17:25:34;;;;;;;9.55;4.80;;;6.50;99.90;;;;;;10324286;28;20058;-65
2021/03/16 17:30:36;;;;;;;8.73;4.93;;;6.40;99.90;;;;;;10324731;28;20157;-66
2021/03/16 17:35:38;;;;;;;12.35;5.38;;;6.40;99.90;;;;;;10322588;28;20133;-65
2021/03/16 17:40:39;;;;;;;11.07;5.30;;;6.40;99.90;;;;;;10324949;28;20042;-66
2021/03/16 17:45:41;;;;;;;10.63;5.50;;;6.40;99.90;;;;;;10323880;28;20596;-66
2021/03/16 17:50:42;;;;;;;13.50;6.18;;;6.50;99.90;;;;;;10325153;28;20042;-66
2021/03/16 17:55:44;;;;;;;11.02;6.30;;;6.50;99.90;;;;;;10321348;28;20550;-66
2021/03/16 18:00:45;;;;;;;9.93;5.57;;;6.50;99.90;;;;;;10324376;28;20054;-66
2021/03/16 18:05:47;;;;;;;11.45;5.93;;;6.30;99.90;;;;;;10322579;28;20100;-66
2021/03/16 18:10:49;;;;;;;13.00;7.88;;;6.20;99.90;;;;;;10323448;28;20082;-66
2021/03/16 18:15:50;;;;;;;13.68;9.38;;;6.20;99.90;;;;;;10322648;28;20186;-66
2021/03/16 18:20:52;;;;;;;10.85;8.38;;;6.20;99.90;;;;;;10324076;28;20058;-66
2021/03/16 18:25:53;;;;;;;12.52;9.30;;;6.30;99.90;;;;;;10322418;28;20050;-66
2021/03/16 18:30:55;;;;;;;11.80;8.40;;;6.20;99.90;;;;;;10322079;28;20567;-65
2021/03/16 18:35:56;;;;;;;12.43;9.30;;;6.20;99.90;;;;;;10322711;28;20240;-66
2021/03/16 18:40:58;;;;;;;12.63;7.32;;;6.10;99.90;;;;;;10322873;28;20578;-66
2021/03/16 18:45:59;;;;;;;11.43;7.38;;;5.90;99.90;;;;;;10322123;28;20396;-66
2021/03/16 18:51:01;;;;;;;15.02;9.88;;;5.90;99.90;;;;;;10320127;28;20498;-66
2021/03/16 18:56:02;;;;;;;14.25;10.70;;;5.80;99.90;;;;;;10320701;28;20426;-66
2021/03/16 19:01:04;;;;;;;14.15;11.38;;;6.00;99.90;;;;;;10321349;28;20489;-66
2021/03/16 19:06:05;;;;;;;14.85;10.38;;;6.20;99.90;;;;;;10322065;28;20137;-66
2021/03/16 19:11:07;;;;;;;13.77;11.02;;;6.20;99.90;;;;;;10322218;28;20109;-66
2021/03/16 19:16:08;;;;;;;15.13;12.30;;;6.30;99.90;;;;;;10322590;28;20121;-66
2021/03/16 19:21:10;;;;;;;17.00;11.80;;;6.40;99.90;;;;;;10320773;28;20047;-66
2021/03/16 19:26:13;;;;;;;15.52;12.50;;;6.30;99.90;;;;;;10323297;28;20138;-66
2021/03/16 19:31:14;;;;;;;16.02;11.52;;;6.30;99.90;;;;;;10322585;28;20082;-66
2021/03/16 19:36:16;;;;;;;22.02;13.55;;;6.20;99.90;;;;;;10323046;28;20487;-65
2021/03/16 19:41:17;;;;;;;20.35;13.50;;;6.20;99.90;;;;;;10322422;28;20142;-65
2021/03/16 19:46:19;;;;;;;16.25;13.98;;;6.20;99.90;;;;;;10320679;28;20154;-66
2021/03/16 19:51:21;;;;;;;19.40;13.90;;;6.20;99.90;;;;;;10328583;28;20395;-66
2021/03/16 19:56:22;;;;;;;14.85;11.00;;;6.30;99.90;;;;;;10328970;28;20567;-66
2021/03/16 20:01:24;;;;;;;14.15;11.75;;;6.30;99.90;;;;;;10329634;28;20446;-66
2021/03/16 20:06:25;;;;;;;13.18;10.40;;;6.30;99.90;;;;;;10330136;28;20096;-66
2021/03/16 20:11:27;;;;;;;12.68;11.13;;;6.30;99.90;;;;;;10329831;28;20519;-66
2021/03/16 20:16:29;;;;;;;16.33;11.93;;;6.40;99.90;;;;;;10328706;28;20510;-66
2021/03/16 20:21:33;;;;;;;14.00;12.52;;;6.40;99.90;;;;;;10329207;28;20069;-66
2021/03/16 20:26:34;;;;;;;15.65;11.60;;;6.30;99.90;;;;;;10328715;28;20054;-66
2021/03/16 20:31:40;;;;;;;13.88;11.70;;;6.20;99.90;;;;;;10327593;28;20051;-66
2021/03/16 20:36:41;;;;;;;16.33;12.10;;;6.10;99.90;;;;;;10323539;28;20154;-66
2021/03/16 20:41:47;;;;;;;13.52;11.43;;;6.10;99.90;;;;;;10326772;28;20678;-65
2021/03/16 20:46:50;;;;;;;13.38;11.85;;;6.00;99.90;;;;;;10326936;28;20042;-66
2021/03/16 20:51:53;;;;;;;14.32;11.57;;;6.10;99.90;;;;;;10328484;28;20132;-66
2021/03/16 20:56:55;;;;;;;12.30;11.05;;;6.10;99.90;;;;;;10327903;28;20139;-66
2021/03/16 21:01:56;;;;;;;12.18;10.88;;;6.00;99.90;;;;;;10326609;28;20134;-66
2021/03/16 21:06:58;;;;;;;12.65;10.93;;;6.10;99.90;;;;;;10328096;28;20058;-66
2021/03/16 21:11:59;;;;;;;16.95;11.13;;;6.10;99.90;;;;;;10326994;28;20538;-65
2021/03/16 21:17:02;;;;;;;13.65;11.38;;;6.20;99.90;;;;;;10327032;28;20050;-66
2021/03/16 21:22:04;;;;;;;16.23;11.77;;;6.20;99.90;;;;;;10327524;28;20051;-66
2021/03/16 21:27:06;;;;;;;15.48;12.43;;;6.30;99.90;;;;;;10339362;28;20124;-66
2021/03/16 21:32:08;;;;;;;14.70;12.45;;;6.20;99.90;;;;;;10323500;28;21003;-66
2021/03/16 21:37:09;;;;;;;15.85;13.02;;;6.20;99.90;;;;;;10325568;28;20054;-66
2021/03/16 21:42:11;;;;;;;15.73;13.15;;;6.30;99.90;;;;;;10325076;28;20058;-66
2021/03/16 21:47:12;;;;;;;15.70;14.07;;;6.40;99.90;;;;;;10324296;28;20108;-66
2021/03/16 21:52:14;;;;;;;15.85;14.23;;;6.40;99.90;;;;;;10324918;28;20074;-66
2021/03/16 21:57:15;;;;;;;17.85;15.02;;;6.40;99.90;;;;;;10323387;28;20117;-74
2021/03/16 22:02:17;;;;;;;17.27;15.48;;;6.40;99.90;;;;;;10322885;28;20134;-74
2021/03/16 22:07:19;;;;;;;17.80;15.57;;;6.30;99.90;;;;;;10298149;28;20137;-75
2021/03/16 22:12:21;;;;;;;18.88;16.83;;;6.30;99.90;;;;;;10311362;28;20054;-74
2021/03/16 22:17:22;;;;;;;17.33;15.50;;;6.20;99.90;;;;;;10315800;28;20049;-74
2021/03/16 22:22:24;;;;;;;21.02;17.15;;;6.10;99.90;;;;;;10312057;28;20046;-74
2021/03/16 22:27:26;;;;;;;19.27;17.23;;;6.10;99.90;;;;;;10322738;28;20056;-74
2021/03/16 22:32:27;;;;;;;20.60;17.80;;;6.10;99.90;;;;;;10294107;28;20101;-74
2021/03/16 22:37:29;;;;;;;20.05;16.80;;;6.10;99.90;;;;;;10309633;28;20047;-74
2021/03/16 22:42:30;;;;;;;18.65;16.02;;;6.00;99.90;;;;;;10322537;28;20101;-74
2021/03/16 22:47:32;;;;;;;18.67;16.02;;;6.20;99.90;;;;;;10321817;28;20053;-74
2021/03/16 22:52:35;;;;;;;16.92;14.98;;;6.20;99.90;;;;;;10320794;28;20058;-74
2021/03/16 22:57:36;;;;;;;25.42;20.25;;;6.00;99.90;;;;;;10322843;28;20046;-74
2021/03/16 23:02:38;;;;;;;15.93;14.23;;;5.90;99.90;;;;;;10320305;28;20053;-74
2021/03/16 23:07:40;;;;;;;17.55;13.77;;;5.70;99.90;;;;;;10320558;28;20511;-74
2021/03/16 23:12:43;;;;;;;134.73;95.53;;;5.60;99.90;;;;;;10321483;28;20137;-74
2021/03/16 23:17:45;;;;;;;18.42;15.90;;;5.40;99.90;;;;;;10321689;28;20116;-74
2021/03/16 23:22:48;;;;;;;14.63;13.05;;;5.50;99.90;;;;;;10323176;28;20100;-74
2021/03/16 23:27:50;;;;;;;14.75;13.15;;;5.40;99.90;;;;;;10329635;28;20054;-74
2021/03/16 23:32:53;;;;;;;17.00;14.30;;;5.40;99.90;;;;;;10329967;28;20057;-74
2021/03/16 23:37:56;;;;;;;15.88;13.63;;;5.50;99.90;;;;;;10321959;28;20050;-74
2021/03/16 23:42:57;;;;;;;17.58;14.45;;;5.70;99.90;;;;;;10329777;28;20062;-74
2021/03/16 23:48:00;;;;;;;18.60;14.98;;;5.80;99.90;;;;;;10330115;28;20060;-74
2021/03/16 23:53:04;;;;;;;19.17;15.70;;;5.80;99.90;;;;;;10328050;28;20097;-74
2021/03/16 23:58:06;;;;;;;19.30;15.15;;;5.80;99.90;;;;;;10329173;28;20081;-74
